sensor_id;sensor_type;location;lat;lon;timestamp;temperature;humidity
83466;DHT22;73393;51.946;20.140;2023-12-20T00:00:05;5.80;100.00
83466;DHT22;73393;51.946;20.140;2023-12-20T00:02:31;5.80;100.00
83466;DHT22;73393;51.946;20.140;2023-12-20T00:04:57;5.70;100.00
83466;DHT22;73393;51.946;20.140;2023-12-20T00:07:22;5.70;100.00
83466;DHT22;73393;51.946;20.140;2023-12-20T00:09:48;5.80;100.00
83466;DHT22;73393;51.946;20.140;2023-12-20T00:12:13;5.80;100.00
83466;DHT22;73393;51.946;20.140;2023-12-20T00:14:39;5.70;100.00
83466;DHT22;73393;51.946;20.140;2023-12-20T00:17:05;5.70;99.90
83466;DHT22;73393;51.946;20.140;2023-12-20T00:19:30;5.80;100.00
83466;DHT22;73393;51.946;20.140;2023-12-20T00:21:56;5.80;99.90
83466;DHT22;73393;51.946;20.140;2023-12-20T00:24:21;5.80;100.00
83466;DHT22;73393;51.946;20.140;2023-12-20T00:26:47;5.80;100.00
83466;DHT22;73393;51.946;20.140;2023-12-20T00:29:12;5.70;99.90
83466;DHT22;73393;51.946;20.140;2023-12-20T00:31:38;5.70;100.00
83466;DHT22;73393;51.946;20.140;2023-12-20T00:34:03;5.70;100.00
83466;DHT22;73393;51.946;20.140;2023-12-20T00:36:29;5.70;100.00
83466;DHT22;73393;51.946;20.140;2023-12-20T00:38:54;5.70;100.00
83466;DHT22;73393;51.946;20.140;2023-12-20T00:41:20;5.70;100.00
83466;DHT22;73393;51.946;20.140;2023-12-20T00:43:45;5.70;100.00
83466;DHT22;73393;51.946;20.140;2023-12-20T00:46:11;5.70;100.00
83466;DHT22;73393;51.946;20.140;2023-12-20T00:48:36;5.70;100.00
83466;DHT22;73393;51.946;20.140;2023-12-20T00:51:02;5.70;100.00
83466;DHT22;73393;51.946;20.140;2023-12-20T00:53:29;5.70;100.00
83466;DHT22;73393;51.946;20.140;2023-12-20T00:55:54;5.70;100.00
83466;DHT22;73393;51.946;20.140;2023-12-20T00:58:20;5.70;100.00
83466;DHT22;73393;51.946;20.140;2023-12-20T01:00:46;5.70;100.00
83466;DHT22;73393;51.946;20.140;2023-12-20T01:03:12;5.70;100.00
83466;DHT22;73393;51.946;20.140;2023-12-20T01:05:37;5.70;100.00
83466;DHT22;73393;51.946;20.140;2023-12-20T01:08:03;5.70;100.00
83466;DHT22;73393;51.946;20.140;2023-12-20T01:10:29;5.80;100.00
83466;DHT22;73393;51.946;20.140;2023-12-20T01:12:56;5.80;100.00
83466;DHT22;73393;51.946;20.140;2023-12-20T01:15:21;5.80;100.00
83466;DHT22;73393;51.946;20.140;2023-12-20T01:17:47;5.90;100.00
83466;DHT22;73393;51.946;20.140;2023-12-20T01:20:13;5.90;100.00
83466;DHT22;73393;51.946;20.140;2023-12-20T01:22:38;5.90;99.70
83466;DHT22;73393;51.946;20.140;2023-12-20T01:25:04;5.90;99.80
83466;DHT22;73393;51.946;20.140;2023-12-20T01:27:30;6.00;99.60
83466;DHT22;73393;51.946;20.140;2023-12-20T01:29:56;6.00;99.50
83466;DHT22;73393;51.946;20.140;2023-12-20T01:32:22;6.00;99.40
83466;DHT22;73393;51.946;20.140;2023-12-20T01:34:48;6.00;99.30
83466;DHT22;73393;51.946;20.140;2023-12-20T01:37:14;6.10;99.20
83466;DHT22;73393;51.946;20.140;2023-12-20T01:39:39;6.10;99.40
83466;DHT22;73393;51.946;20.140;2023-12-20T01:42:05;6.00;99.40
83466;DHT22;73393;51.946;20.140;2023-12-20T01:44:30;6.00;99.60
83466;DHT22;73393;51.946;20.140;2023-12-20T01:46:56;6.00;99.60
83466;DHT22;73393;51.946;20.140;2023-12-20T01:49:22;6.00;99.60
83466;DHT22;73393;51.946;20.140;2023-12-20T01:51:49;6.00;99.60
83466;DHT22;73393;51.946;20.140;2023-12-20T01:54:15;5.90;99.80
83466;DHT22;73393;51.946;20.140;2023-12-20T01:56:42;5.90;99.80
83466;DHT22;73393;51.946;20.140;2023-12-20T01:59:08;5.90;100.00
83466;DHT22;73393;51.946;20.140;2023-12-20T02:01:35;5.90;100.00
83466;DHT22;73393;51.946;20.140;2023-12-20T02:04:01;5.90;100.00
83466;DHT22;73393;51.946;20.140;2023-12-20T02:06:29;6.00;99.80
83466;DHT22;73393;51.946;20.140;2023-12-20T02:08:57;6.00;99.70
83466;DHT22;73393;51.946;20.140;2023-12-20T02:11:24;6.00;99.70
83466;DHT22;73393;51.946;20.140;2023-12-20T02:13:50;6.00;99.70
83466;DHT22;73393;51.946;20.140;2023-12-20T02:16:16;5.90;100.00
83466;DHT22;73393;51.946;20.140;2023-12-20T02:18:43;5.90;100.00
83466;DHT22;73393;51.946;20.140;2023-12-20T02:21:09;6.00;100.00
83466;DHT22;73393;51.946;20.140;2023-12-20T02:23:35;5.90;99.90
83466;DHT22;73393;51.946;20.140;2023-12-20T02:26:03;5.90;100.00
83466;DHT22;73393;51.946;20.140;2023-12-20T02:28:30;5.90;100.00
83466;DHT22;73393;51.946;20.140;2023-12-20T02:30:56;5.90;100.00
83466;DHT22;73393;51.946;20.140;2023-12-20T02:33:21;5.90;100.00
83466;DHT22;73393;51.946;20.140;2023-12-20T02:35:47;5.90;99.80
83466;DHT22;73393;51.946;20.140;2023-12-20T02:38:13;5.90;100.00
83466;DHT22;73393;51.946;20.140;2023-12-20T02:40:38;5.90;100.00
83466;DHT22;73393;51.946;20.140;2023-12-20T02:43:04;5.90;100.00
83466;DHT22;73393;51.946;20.140;2023-12-20T02:45:30;5.90;100.00
83466;DHT22;73393;51.946;20.140;2023-12-20T02:47:55;5.90;100.00
83466;DHT22;73393;51.946;20.140;2023-12-20T02:50:21;5.90;100.00
83466;DHT22;73393;51.946;20.140;2023-12-20T02:52:47;5.90;100.00
83466;DHT22;73393;51.946;20.140;2023-12-20T02:55:12;5.90;100.00
83466;DHT22;73393;51.946;20.140;2023-12-20T02:57:38;5.90;99.70
83466;DHT22;73393;51.946;20.140;2023-12-20T03:00:08;5.90;99.50
83466;DHT22;73393;51.946;20.140;2023-12-20T03:02:34;5.90;99.40
83466;DHT22;73393;51.946;20.140;2023-12-20T03:05:00;5.90;99.50
83466;DHT22;73393;51.946;20.140;2023-12-20T03:07:25;5.90;99.10
83466;DHT22;73393;51.946;20.140;2023-12-20T03:09:51;5.90;99.10
83466;DHT22;73393;51.946;20.140;2023-12-20T03:12:16;5.90;98.80
83466;DHT22;73393;51.946;20.140;2023-12-20T03:14:43;5.90;99.00
83466;DHT22;73393;51.946;20.140;2023-12-20T03:17:09;5.90;98.80
83466;DHT22;73393;51.946;20.140;2023-12-20T03:19:35;5.80;98.80
83466;DHT22;73393;51.946;20.140;2023-12-20T03:22:00;5.80;99.00
83466;DHT22;73393;51.946;20.140;2023-12-20T03:24:26;5.80;99.10
83466;DHT22;73393;51.946;20.140;2023-12-20T03:26:52;5.80;99.00
83466;DHT22;73393;51.946;20.140;2023-12-20T03:29:17;5.90;99.30
83466;DHT22;73393;51.946;20.140;2023-12-20T03:31:43;5.90;98.90
83466;DHT22;73393;51.946;20.140;2023-12-20T03:34:08;5.90;99.00
83466;DHT22;73393;51.946;20.140;2023-12-20T03:36:34;5.90;99.10
83466;DHT22;73393;51.946;20.140;2023-12-20T03:39:00;5.90;98.90
83466;DHT22;73393;51.946;20.140;2023-12-20T03:41:25;6.00;98.90
83466;DHT22;73393;51.946;20.140;2023-12-20T03:43:51;6.00;98.90
83466;DHT22;73393;51.946;20.140;2023-12-20T03:46:16;6.00;98.90
83466;DHT22;73393;51.946;20.140;2023-12-20T03:48:42;6.00;98.90
83466;DHT22;73393;51.946;20.140;2023-12-20T03:51:07;5.90;99.10
83466;DHT22;73393;51.946;20.140;2023-12-20T03:53:33;5.90;99.50
83466;DHT22;73393;51.946;20.140;2023-12-20T03:55:59;5.90;99.40
83466;DHT22;73393;51.946;20.140;2023-12-20T03:58:25;5.90;99.40
83466;DHT22;73393;51.946;20.140;2023-12-20T04:00:51;5.90;99.20
83466;DHT22;73393;51.946;20.140;2023-12-20T04:03:16;5.90;99.60
83466;DHT22;73393;51.946;20.140;2023-12-20T04:05:42;5.80;99.60
83466;DHT22;73393;51.946;20.140;2023-12-20T04:08:08;5.90;99.90
83466;DHT22;73393;51.946;20.140;2023-12-20T04:10:34;5.90;99.70
83466;DHT22;73393;51.946;20.140;2023-12-20T04:12:59;5.80;99.70
83466;DHT22;73393;51.946;20.140;2023-12-20T04:15:25;5.90;99.90
83466;DHT22;73393;51.946;20.140;2023-12-20T04:17:51;5.90;99.80
83466;DHT22;73393;51.946;20.140;2023-12-20T04:20:17;5.80;100.00
83466;DHT22;73393;51.946;20.140;2023-12-20T04:22:43;5.90;100.00
83466;DHT22;73393;51.946;20.140;2023-12-20T04:25:09;5.90;99.80
83466;DHT22;73393;51.946;20.140;2023-12-20T04:27:35;5.90;99.70
83466;DHT22;73393;51.946;20.140;2023-12-20T04:30:00;5.80;99.90
83466;DHT22;73393;51.946;20.140;2023-12-20T04:32:26;5.90;99.90
83466;DHT22;73393;51.946;20.140;2023-12-20T04:34:51;5.90;99.80
83466;DHT22;73393;51.946;20.140;2023-12-20T04:37:17;5.90;99.70
83466;DHT22;73393;51.946;20.140;2023-12-20T04:39:42;5.90;99.40
83466;DHT22;73393;51.946;20.140;2023-12-20T04:42:08;5.90;99.50
83466;DHT22;73393;51.946;20.140;2023-12-20T04:44:34;5.90;99.30
83466;DHT22;73393;51.946;20.140;2023-12-20T04:46:59;6.00;99.40
83466;DHT22;73393;51.946;20.140;2023-12-20T04:49:25;6.00;99.10
83466;DHT22;73393;51.946;20.140;2023-12-20T04:51:51;5.90;99.20
83466;DHT22;73393;51.946;20.140;2023-12-20T04:54:16;6.00;99.10
83466;DHT22;73393;51.946;20.140;2023-12-20T04:56:42;5.90;98.90
83466;DHT22;73393;51.946;20.140;2023-12-20T04:59:07;6.00;98.70
83466;DHT22;73393;51.946;20.140;2023-12-20T05:01:33;6.00;98.70
83466;DHT22;73393;51.946;20.140;2023-12-20T05:03:59;5.90;98.60
83466;DHT22;73393;51.946;20.140;2023-12-20T05:06:24;5.90;98.80
83466;DHT22;73393;51.946;20.140;2023-12-20T05:08:50;5.90;98.90
83466;DHT22;73393;51.946;20.140;2023-12-20T05:11:15;5.90;99.00
83466;DHT22;73393;51.946;20.140;2023-12-20T05:13:41;5.90;99.10
83466;DHT22;73393;51.946;20.140;2023-12-20T05:16:07;5.90;99.10
83466;DHT22;73393;51.946;20.140;2023-12-20T05:18:34;5.90;99.20
83466;DHT22;73393;51.946;20.140;2023-12-20T05:21:00;5.80;99.20
83466;DHT22;73393;51.946;20.140;2023-12-20T05:23:25;5.80;99.40
83466;DHT22;73393;51.946;20.140;2023-12-20T05:25:51;5.80;99.80
83466;DHT22;73393;51.946;20.140;2023-12-20T05:28:16;5.80;99.50
83466;DHT22;73393;51.946;20.140;2023-12-20T05:30:42;5.80;99.40
83466;DHT22;73393;51.946;20.140;2023-12-20T05:33:08;5.80;99.20
83466;DHT22;73393;51.946;20.140;2023-12-20T05:35:34;5.90;98.80
83466;DHT22;73393;51.946;20.140;2023-12-20T05:38:00;5.80;98.70
83466;DHT22;73393;51.946;20.140;2023-12-20T05:40:25;5.80;98.90
83466;DHT22;73393;51.946;20.140;2023-12-20T05:42:51;5.70;99.10
83466;DHT22;73393;51.946;20.140;2023-12-20T05:45:16;5.70;99.20
83466;DHT22;73393;51.946;20.140;2023-12-20T05:47:42;5.80;99.20
83466;DHT22;73393;51.946;20.140;2023-12-20T05:50:08;5.70;99.30
83466;DHT22;73393;51.946;20.140;2023-12-20T05:52:34;5.80;99.30
83466;DHT22;73393;51.946;20.140;2023-12-20T05:54:59;5.80;99.20
83466;DHT22;73393;51.946;20.140;2023-12-20T05:57:27;5.80;99.30
83466;DHT22;73393;51.946;20.140;2023-12-20T05:59:52;5.80;99.10
83466;DHT22;73393;51.946;20.140;2023-12-20T06:02:18;5.80;99.30
83466;DHT22;73393;51.946;20.140;2023-12-20T06:04:44;5.80;99.20
83466;DHT22;73393;51.946;20.140;2023-12-20T06:07:16;5.70;99.10
83466;DHT22;73393;51.946;20.140;2023-12-20T06:09:41;5.70;99.50
83466;DHT22;73393;51.946;20.140;2023-12-20T06:12:07;5.60;99.70
83466;DHT22;73393;51.946;20.140;2023-12-20T06:14:36;5.70;99.80
83466;DHT22;73393;51.946;20.140;2023-12-20T06:17:02;5.70;99.90
83466;DHT22;73393;51.946;20.140;2023-12-20T06:19:28;5.70;100.00
83466;DHT22;73393;51.946;20.140;2023-12-20T06:21:54;5.70;99.70
83466;DHT22;73393;51.946;20.140;2023-12-20T06:24:19;5.70;99.60
83466;DHT22;73393;51.946;20.140;2023-12-20T06:26:45;5.70;99.70
83466;DHT22;73393;51.946;20.140;2023-12-20T06:29:10;5.70;99.50
83466;DHT22;73393;51.946;20.140;2023-12-20T06:31:36;5.80;99.40
83466;DHT22;73393;51.946;20.140;2023-12-20T06:34:01;5.80;99.40
83466;DHT22;73393;51.946;20.140;2023-12-20T06:36:27;5.80;99.30
83466;DHT22;73393;51.946;20.140;2023-12-20T06:38:53;5.70;99.30
83466;DHT22;73393;51.946;20.140;2023-12-20T06:41:19;5.70;99.30
83466;DHT22;73393;51.946;20.140;2023-12-20T06:43:44;5.70;99.70
83466;DHT22;73393;51.946;20.140;2023-12-20T06:46:10;5.70;99.40
83466;DHT22;73393;51.946;20.140;2023-12-20T06:48:36;5.70;99.20
83466;DHT22;73393;51.946;20.140;2023-12-20T06:51:02;5.60;99.30
83466;DHT22;73393;51.946;20.140;2023-12-20T06:53:28;5.70;99.40
83466;DHT22;73393;51.946;20.140;2023-12-20T06:55:54;5.70;99.70
83466;DHT22;73393;51.946;20.140;2023-12-20T06:58:21;5.60;99.30
83466;DHT22;73393;51.946;20.140;2023-12-20T07:00:47;5.60;99.60
83466;DHT22;73393;51.946;20.140;2023-12-20T07:03:12;5.70;99.60
83466;DHT22;73393;51.946;20.140;2023-12-20T07:05:38;5.70;99.40
83466;DHT22;73393;51.946;20.140;2023-12-20T07:08:04;5.70;99.30
83466;DHT22;73393;51.946;20.140;2023-12-20T07:10:30;5.70;99.30
83466;DHT22;73393;51.946;20.140;2023-12-20T07:12:56;5.60;99.50
83466;DHT22;73393;51.946;20.140;2023-12-20T07:15:22;5.70;99.40
83466;DHT22;73393;51.946;20.140;2023-12-20T07:17:48;5.70;99.30
83466;DHT22;73393;51.946;20.140;2023-12-20T07:20:13;5.60;99.30
83466;DHT22;73393;51.946;20.140;2023-12-20T07:22:39;5.60;99.70
83466;DHT22;73393;51.946;20.140;2023-12-20T07:25:05;5.60;99.60
83466;DHT22;73393;51.946;20.140;2023-12-20T07:27:30;5.70;99.30
83466;DHT22;73393;51.946;20.140;2023-12-20T07:29:56;5.70;99.20
83466;DHT22;73393;51.946;20.140;2023-12-20T07:32:22;5.70;99.10
83466;DHT22;73393;51.946;20.140;2023-12-20T07:34:47;5.60;99.00
83466;DHT22;73393;51.946;20.140;2023-12-20T07:37:13;5.70;99.20
83466;DHT22;73393;51.946;20.140;2023-12-20T07:39:42;5.70;99.20
83466;DHT22;73393;51.946;20.140;2023-12-20T07:42:08;5.70;99.10
83466;DHT22;73393;51.946;20.140;2023-12-20T07:44:35;5.60;99.10
83466;DHT22;73393;51.946;20.140;2023-12-20T07:47:04;5.60;99.10
83466;DHT22;73393;51.946;20.140;2023-12-20T07:49:32;5.60;99.30
83466;DHT22;73393;51.946;20.140;2023-12-20T07:51:58;5.60;99.40
83466;DHT22;73393;51.946;20.140;2023-12-20T07:54:24;5.70;99.70
83466;DHT22;73393;51.946;20.140;2023-12-20T07:56:49;5.70;99.40
83466;DHT22;73393;51.946;20.140;2023-12-20T07:59:15;5.70;99.10
83466;DHT22;73393;51.946;20.140;2023-12-20T08:01:41;5.80;98.90
83466;DHT22;73393;51.946;20.140;2023-12-20T08:04:07;5.80;98.70
83466;DHT22;73393;51.946;20.140;2023-12-20T08:06:33;5.80;98.90
83466;DHT22;73393;51.946;20.140;2023-12-20T08:08:58;5.90;98.90
83466;DHT22;73393;51.946;20.140;2023-12-20T08:11:24;5.80;98.70
83466;DHT22;73393;51.946;20.140;2023-12-20T08:13:49;5.80;98.70
83466;DHT22;73393;51.946;20.140;2023-12-20T08:16:16;5.80;98.90
83466;DHT22;73393;51.946;20.140;2023-12-20T08:18:43;5.80;98.40
83466;DHT22;73393;51.946;20.140;2023-12-20T08:21:08;5.80;98.70
83466;DHT22;73393;51.946;20.140;2023-12-20T08:23:34;5.80;98.70
83466;DHT22;73393;51.946;20.140;2023-12-20T08:26:07;5.80;99.00
83466;DHT22;73393;51.946;20.140;2023-12-20T08:28:33;5.80;98.90
83466;DHT22;73393;51.946;20.140;2023-12-20T08:30:59;5.90;98.80
83466;DHT22;73393;51.946;20.140;2023-12-20T08:33:25;5.90;98.70
83466;DHT22;73393;51.946;20.140;2023-12-20T08:35:51;6.00;98.50
83466;DHT22;73393;51.946;20.140;2023-12-20T08:38:16;5.90;98.20
83466;DHT22;73393;51.946;20.140;2023-12-20T08:40:43;5.80;98.20
83466;DHT22;73393;51.946;20.140;2023-12-20T08:43:09;5.80;98.70
83466;DHT22;73393;51.946;20.140;2023-12-20T08:45:34;5.80;98.50
83466;DHT22;73393;51.946;20.140;2023-12-20T08:48:00;5.90;98.70
83466;DHT22;73393;51.946;20.140;2023-12-20T08:50:26;5.80;98.70
83466;DHT22;73393;51.946;20.140;2023-12-20T08:52:51;5.80;98.50
83466;DHT22;73393;51.946;20.140;2023-12-20T08:55:17;5.80;98.60
83466;DHT22;73393;51.946;20.140;2023-12-20T08:57:43;5.80;99.10
83466;DHT22;73393;51.946;20.140;2023-12-20T09:00:10;5.90;99.20
83466;DHT22;73393;51.946;20.140;2023-12-20T09:02:35;5.90;98.90
83466;DHT22;73393;51.946;20.140;2023-12-20T09:05:04;5.90;98.70
83466;DHT22;73393;51.946;20.140;2023-12-20T09:07:30;5.90;98.70
83466;DHT22;73393;51.946;20.140;2023-12-20T09:09:57;6.00;98.50
83466;DHT22;73393;51.946;20.140;2023-12-20T09:12:23;5.90;98.40
83466;DHT22;73393;51.946;20.140;2023-12-20T09:14:50;5.80;99.10
83466;DHT22;73393;51.946;20.140;2023-12-20T09:17:16;5.90;99.10
83466;DHT22;73393;51.946;20.140;2023-12-20T09:19:42;5.90;99.30
83466;DHT22;73393;51.946;20.140;2023-12-20T09:22:09;6.00;99.00
83466;DHT22;73393;51.946;20.140;2023-12-20T09:24:34;6.00;98.80
83466;DHT22;73393;51.946;20.140;2023-12-20T09:27:00;6.00;98.70
83466;DHT22;73393;51.946;20.140;2023-12-20T09:29:26;5.90;98.50
83466;DHT22;73393;51.946;20.140;2023-12-20T09:31:51;5.90;99.00
83466;DHT22;73393;51.946;20.140;2023-12-20T09:34:17;5.90;99.30
83466;DHT22;73393;51.946;20.140;2023-12-20T09:36:42;6.00;99.20
83466;DHT22;73393;51.946;20.140;2023-12-20T09:39:15;5.90;98.90
83466;DHT22;73393;51.946;20.140;2023-12-20T09:41:45;5.90;99.00
83466;DHT22;73393;51.946;20.140;2023-12-20T09:44:16;5.90;99.40
83466;DHT22;73393;51.946;20.140;2023-12-20T09:46:44;5.90;99.40
83466;DHT22;73393;51.946;20.140;2023-12-20T09:49:10;5.90;99.20
83466;DHT22;73393;51.946;20.140;2023-12-20T09:51:36;5.90;99.30
83466;DHT22;73393;51.946;20.140;2023-12-20T09:54:03;5.80;99.40
83466;DHT22;73393;51.946;20.140;2023-12-20T09:56:30;5.90;99.40
83466;DHT22;73393;51.946;20.140;2023-12-20T09:58:56;5.90;99.20
83466;DHT22;73393;51.946;20.140;2023-12-20T10:01:23;6.00;98.90
83466;DHT22;73393;51.946;20.140;2023-12-20T10:03:51;6.10;99.20
83466;DHT22;73393;51.946;20.140;2023-12-20T10:06:18;6.00;98.60
83466;DHT22;73393;51.946;20.140;2023-12-20T10:08:44;6.00;98.60
83466;DHT22;73393;51.946;20.140;2023-12-20T10:11:09;6.10;98.70
83466;DHT22;73393;51.946;20.140;2023-12-20T10:13:40;6.10;98.20
83466;DHT22;73393;51.946;20.140;2023-12-20T10:16:06;6.10;98.00
83466;DHT22;73393;51.946;20.140;2023-12-20T10:18:35;6.10;98.50
83466;DHT22;73393;51.946;20.140;2023-12-20T10:21:01;6.10;98.10
83466;DHT22;73393;51.946;20.140;2023-12-20T10:23:28;6.00;98.40
83466;DHT22;73393;51.946;20.140;2023-12-20T10:25:58;6.10;98.40
83466;DHT22;73393;51.946;20.140;2023-12-20T10:28:23;6.10;97.80
83466;DHT22;73393;51.946;20.140;2023-12-20T10:30:53;6.10;98.00
83466;DHT22;73393;51.946;20.140;2023-12-20T10:33:25;6.10;97.80
83466;DHT22;73393;51.946;20.140;2023-12-20T10:35:52;6.00;97.90
83466;DHT22;73393;51.946;20.140;2023-12-20T10:38:18;6.00;97.10
83466;DHT22;73393;51.946;20.140;2023-12-20T10:40:45;5.90;97.10
83466;DHT22;73393;51.946;20.140;2023-12-20T10:43:11;5.90;97.20
83466;DHT22;73393;51.946;20.140;2023-12-20T10:45:37;5.90;97.70
83466;DHT22;73393;51.946;20.140;2023-12-20T10:48:03;5.80;97.70
83466;DHT22;73393;51.946;20.140;2023-12-20T10:50:30;5.90;98.10
83466;DHT22;73393;51.946;20.140;2023-12-20T10:52:58;5.90;97.90
83466;DHT22;73393;51.946;20.140;2023-12-20T10:55:24;6.00;98.20
83466;DHT22;73393;51.946;20.140;2023-12-20T10:58:01;6.00;98.00
83466;DHT22;73393;51.946;20.140;2023-12-20T11:00:31;5.90;97.60
83466;DHT22;73393;51.946;20.140;2023-12-20T11:03:00;5.80;98.00
83466;DHT22;73393;51.946;20.140;2023-12-20T11:05:36;5.90;98.60
83466;DHT22;73393;51.946;20.140;2023-12-20T11:08:14;5.90;97.00
83466;DHT22;73393;51.946;20.140;2023-12-20T11:11:13;5.80;96.50
83466;DHT22;73393;51.946;20.140;2023-12-20T11:16:24;5.60;97.00
83466;DHT22;73393;51.946;20.140;2023-12-20T11:18:51;5.70;96.40
83466;DHT22;73393;51.946;20.140;2023-12-20T11:21:17;5.70;95.60
83466;DHT22;73393;51.946;20.140;2023-12-20T11:23:43;5.70;96.50
83466;DHT22;73393;51.946;20.140;2023-12-20T11:26:09;5.70;95.20
83466;DHT22;73393;51.946;20.140;2023-12-20T11:28:34;5.70;95.80
83466;DHT22;73393;51.946;20.140;2023-12-20T11:31:01;5.70;94.50
83466;DHT22;73393;51.946;20.140;2023-12-20T11:33:35;5.70;94.40
83466;DHT22;73393;51.946;20.140;2023-12-20T11:36:01;5.70;94.30
83466;DHT22;73393;51.946;20.140;2023-12-20T11:38:35;5.60;93.80
83466;DHT22;73393;51.946;20.140;2023-12-20T11:41:01;5.50;94.20
83466;DHT22;73393;51.946;20.140;2023-12-20T11:43:36;5.50;94.60
83466;DHT22;73393;51.946;20.140;2023-12-20T11:46:06;5.50;95.90
83466;DHT22;73393;51.946;20.140;2023-12-20T11:48:34;5.60;95.30
83466;DHT22;73393;51.946;20.140;2023-12-20T11:51:00;5.60;95.20
83466;DHT22;73393;51.946;20.140;2023-12-20T11:53:25;5.60;95.50
83466;DHT22;73393;51.946;20.140;2023-12-20T11:55:51;5.60;95.90
83466;DHT22;73393;51.946;20.140;2023-12-20T11:58:17;5.70;96.00
83466;DHT22;73393;51.946;20.140;2023-12-20T12:00:43;5.70;95.70
83466;DHT22;73393;51.946;20.140;2023-12-20T12:03:09;5.70;95.50
83466;DHT22;73393;51.946;20.140;2023-12-20T12:05:35;5.70;95.80
83466;DHT22;73393;51.946;20.140;2023-12-20T12:08:01;5.70;95.70
83466;DHT22;73393;51.946;20.140;2023-12-20T12:10:29;5.60;95.50
83466;DHT22;73393;51.946;20.140;2023-12-20T12:12:56;5.70;96.60
83466;DHT22;73393;51.946;20.140;2023-12-20T12:15:22;5.70;96.40
83466;DHT22;73393;51.946;20.140;2023-12-20T12:17:57;5.60;95.60
83466;DHT22;73393;51.946;20.140;2023-12-20T12:20:23;5.70;95.80
83466;DHT22;73393;51.946;20.140;2023-12-20T12:23:03;5.70;95.70
83466;DHT22;73393;51.946;20.140;2023-12-20T12:25:29;5.70;95.90
83466;DHT22;73393;51.946;20.140;2023-12-20T12:27:57;5.70;96.10
83466;DHT22;73393;51.946;20.140;2023-12-20T12:30:23;5.80;96.40
83466;DHT22;73393;51.946;20.140;2023-12-20T12:32:48;5.80;96.00
83466;DHT22;73393;51.946;20.140;2023-12-20T12:35:14;5.70;95.60
83466;DHT22;73393;51.946;20.140;2023-12-20T12:37:41;5.70;95.20
83466;DHT22;73393;51.946;20.140;2023-12-20T12:40:10;5.60;95.90
83466;DHT22;73393;51.946;20.140;2023-12-20T12:42:41;5.60;95.80
83466;DHT22;73393;51.946;20.140;2023-12-20T12:45:07;5.70;94.90
83466;DHT22;73393;51.946;20.140;2023-12-20T12:47:34;5.70;95.50
83466;DHT22;73393;51.946;20.140;2023-12-20T12:49:59;5.80;95.50
83466;DHT22;73393;51.946;20.140;2023-12-20T12:52:25;5.80;94.70
83466;DHT22;73393;51.946;20.140;2023-12-20T12:54:52;5.80;94.80
83466;DHT22;73393;51.946;20.140;2023-12-20T12:57:18;5.80;95.10
83466;DHT22;73393;51.946;20.140;2023-12-20T12:59:45;5.80;94.70
83466;DHT22;73393;51.946;20.140;2023-12-20T13:02:14;5.80;95.30
83466;DHT22;73393;51.946;20.140;2023-12-20T13:04:42;5.80;93.90
83466;DHT22;73393;51.946;20.140;2023-12-20T13:07:10;5.70;94.80
83466;DHT22;73393;51.946;20.140;2023-12-20T13:09:39;5.70;94.50
83466;DHT22;73393;51.946;20.140;2023-12-20T13:12:08;5.70;94.10
83466;DHT22;73393;51.946;20.140;2023-12-20T13:14:34;5.70;93.30
83466;DHT22;73393;51.946;20.140;2023-12-20T13:17:02;5.70;93.60
83466;DHT22;73393;51.946;20.140;2023-12-20T13:19:29;5.70;92.80
83466;DHT22;73393;51.946;20.140;2023-12-20T13:21:55;5.60;91.70
83466;DHT22;73393;51.946;20.140;2023-12-20T13:24:21;5.50;91.80
83466;DHT22;73393;51.946;20.140;2023-12-20T13:26:46;5.50;92.00
83466;DHT22;73393;51.946;20.140;2023-12-20T13:29:12;5.40;92.10
83466;DHT22;73393;51.946;20.140;2023-12-20T13:31:38;5.40;91.80
83466;DHT22;73393;51.946;20.140;2023-12-20T13:34:04;5.30;91.40
83466;DHT22;73393;51.946;20.140;2023-12-20T13:36:30;5.30;91.30
83466;DHT22;73393;51.946;20.140;2023-12-20T13:38:56;5.30;90.90
83466;DHT22;73393;51.946;20.140;2023-12-20T13:41:21;5.30;89.50
83466;DHT22;73393;51.946;20.140;2023-12-20T13:43:47;5.20;90.50
83466;DHT22;73393;51.946;20.140;2023-12-20T13:46:13;5.20;89.60
83466;DHT22;73393;51.946;20.140;2023-12-20T13:48:39;5.20;89.40
83466;DHT22;73393;51.946;20.140;2023-12-20T13:51:05;5.20;89.40
83466;DHT22;73393;51.946;20.140;2023-12-20T13:53:31;5.20;89.90
83466;DHT22;73393;51.946;20.140;2023-12-20T13:55:57;5.10;89.90
83466;DHT22;73393;51.946;20.140;2023-12-20T13:58:23;5.10;89.50
83466;DHT22;73393;51.946;20.140;2023-12-20T14:00:48;5.10;89.30
83466;DHT22;73393;51.946;20.140;2023-12-20T14:03:14;5.10;90.10
83466;DHT22;73393;51.946;20.140;2023-12-20T14:05:40;5.00;89.90
83466;DHT22;73393;51.946;20.140;2023-12-20T14:08:06;5.10;90.30
83466;DHT22;73393;51.946;20.140;2023-12-20T14:10:32;5.00;88.80
83466;DHT22;73393;51.946;20.140;2023-12-20T14:12:58;5.10;90.20
83466;DHT22;73393;51.946;20.140;2023-12-20T14:15:23;5.10;89.80
83466;DHT22;73393;51.946;20.140;2023-12-20T14:17:50;5.10;89.90
83466;DHT22;73393;51.946;20.140;2023-12-20T14:20:16;5.00;89.90
83466;DHT22;73393;51.946;20.140;2023-12-20T14:22:42;5.00;90.30
83466;DHT22;73393;51.946;20.140;2023-12-20T14:25:11;5.00;89.80
83466;DHT22;73393;51.946;20.140;2023-12-20T14:27:38;5.00;89.30
83466;DHT22;73393;51.946;20.140;2023-12-20T14:30:04;5.00;89.10
83466;DHT22;73393;51.946;20.140;2023-12-20T14:32:31;5.00;89.60
83466;DHT22;73393;51.946;20.140;2023-12-20T14:34:57;5.00;89.30
83466;DHT22;73393;51.946;20.140;2023-12-20T14:37:22;5.00;88.60
83466;DHT22;73393;51.946;20.140;2023-12-20T14:39:48;5.00;88.70
83466;DHT22;73393;51.946;20.140;2023-12-20T14:42:13;5.00;89.70
83466;DHT22;73393;51.946;20.140;2023-12-20T14:44:43;5.00;89.10
83466;DHT22;73393;51.946;20.140;2023-12-20T14:47:09;5.00;89.80
83466;DHT22;73393;51.946;20.140;2023-12-20T14:49:34;5.00;89.60
83466;DHT22;73393;51.946;20.140;2023-12-20T14:52:01;5.00;89.50
83466;DHT22;73393;51.946;20.140;2023-12-20T14:54:26;4.90;89.40
83466;DHT22;73393;51.946;20.140;2023-12-20T14:56:52;5.00;90.20
83466;DHT22;73393;51.946;20.140;2023-12-20T14:59:17;5.00;89.90
83466;DHT22;73393;51.946;20.140;2023-12-20T15:01:43;5.00;89.70
83466;DHT22;73393;51.946;20.140;2023-12-20T15:04:10;5.00;89.80
83466;DHT22;73393;51.946;20.140;2023-12-20T15:06:36;5.00;89.90
83466;DHT22;73393;51.946;20.140;2023-12-20T15:09:01;4.90;90.00
83466;DHT22;73393;51.946;20.140;2023-12-20T15:11:33;4.80;90.50
83466;DHT22;73393;51.946;20.140;2023-12-20T15:14:00;4.80;90.50
83466;DHT22;73393;51.946;20.140;2023-12-20T15:16:26;4.80;90.60
83466;DHT22;73393;51.946;20.140;2023-12-20T15:18:52;4.90;89.50
83466;DHT22;73393;51.946;20.140;2023-12-20T15:21:18;4.90;89.30
83466;DHT22;73393;51.946;20.140;2023-12-20T15:23:44;4.90;89.70
83466;DHT22;73393;51.946;20.140;2023-12-20T15:26:21;4.80;89.10